Time;durP1;ratioP1;P1;durP2;ratioP2;P2;SDS_P1;SDS_P2;PMS_P1;PMS_P2;Temp;Humidity;BMP_temperature;BMP_pressure;BME280_temperature;BME280_humidity;BME280_pressure;Samples;Min_cycle;Max_cycle;Signal;HPM_P1;HPM_P2
2022/03/20 00:00:12;;;;;;;10.07;7.10;;;5.70;17.30;;;;;;5105967;27;34214;-76
2022/03/20 00:02:39;;;;;;;12.25;7.47;;;5.60;18.20;;;;;;5106027;27;34889;-76
2022/03/20 00:05:06;;;;;;;11.65;7.38;;;5.50;17.60;;;;;;5106162;27;34409;-76
2022/03/20 00:07:33;;;;;;;11.35;7.07;;;5.50;17.60;;;;;;5104929;27;35916;-76
2022/03/20 00:10:02;;;;;;;11.32;7.28;;;5.40;17.60;;;;;;5105963;27;34202;-76
2022/03/20 00:12:29;;;;;;;11.43;7.93;;;5.40;17.90;;;;;;5106365;27;34123;-76
2022/03/20 00:14:55;;;;;;;13.45;8.20;;;5.30;18.00;;;;;;5109580;27;34503;-76
2022/03/20 00:17:21;;;;;;;11.52;8.05;;;5.30;18.00;;;;;;5108882;27;35514;-76
2022/03/20 00:19:48;;;;;;;14.25;8.00;;;5.30;18.00;;;;;;5126436;27;34232;-75
2022/03/20 00:22:15;;;;;;;11.38;7.30;;;5.30;18.00;;;;;;5108720;27;34174;-76
2022/03/20 00:24:42;;;;;;;13.18;7.97;;;5.30;18.30;;;;;;5108582;27;34490;-75
2022/03/20 00:27:11;;;;;;;15.38;7.55;;;5.20;18.10;;;;;;5126058;27;35013;-76
2022/03/20 00:29:36;;;;;;;13.65;8.23;;;5.20;18.20;;;;;;5108302;27;34480;-76
2022/03/20 00:32:05;;;;;;;13.43;8.35;;;5.20;18.00;;;;;;5108888;27;34494;-76
2022/03/20 00:34:31;;;;;;;15.05;8.82;;;5.30;18.30;;;;;;5108870;27;34286;-76
2022/03/20 00:36:57;;;;;;;15.15;8.48;;;5.20;18.10;;;;;;5126772;27;34294;-76
2022/03/20 00:39:23;;;;;;;11.52;8.00;;;5.30;18.30;;;;;;5126623;27;34201;-75
2022/03/20 00:41:49;;;;;;;15.38;8.82;;;5.30;18.50;;;;;;5108356;27;34169;-76
2022/03/20 00:44:15;;;;;;;15.18;8.60;;;5.30;18.20;;;;;;5108944;27;34233;-76
2022/03/20 00:46:41;;;;;;;14.40;8.80;;;5.30;18.10;;;;;;5126379;27;34867;-76
2022/03/20 00:49:07;;;;;;;16.17;9.02;;;5.30;18.20;;;;;;5108011;27;34096;-76
2022/03/20 00:51:33;;;;;;;12.15;8.65;;;5.30;18.10;;;;;;5108580;27;34190;-76
2022/03/20 00:53:59;;;;;;;15.75;9.43;;;5.40;18.10;;;;;;5108146;27;34320;-76
2022/03/20 00:56:26;;;;;;;12.65;8.85;;;5.30;18.00;;;;;;5126550;27;34358;-76
2022/03/20 00:58:52;;;;;;;13.35;9.75;;;5.40;17.90;;;;;;5126709;27;34145;-76
2022/03/20 01:01:18;;;;;;;13.18;8.82;;;5.40;17.90;;;;;;5108506;27;34228;-76
2022/03/20 01:03:44;;;;;;;18.60;9.90;;;5.40;17.80;;;;;;5107975;27;34171;-75
2022/03/20 01:06:11;;;;;;;13.57;9.13;;;5.40;17.80;;;;;;5087774;28;36111;-75
2022/03/20 01:08:38;;;;;;;18.05;9.68;;;5.40;17.80;;;;;;5089567;28;34189;-76
2022/03/20 01:11:06;;;;;;;14.98;9.48;;;5.40;17.80;;;;;;5105623;27;34515;-76
2022/03/20 01:13:33;;;;;;;12.95;8.73;;;5.40;17.80;;;;;;5088487;27;34131;-76
2022/03/20 01:15:59;;;;;;;16.52;9.57;;;5.40;17.60;;;;;;5105415;27;34343;-76
2022/03/20 01:18:25;;;;;;;15.85;9.52;;;5.40;17.70;;;;;;5106734;28;34388;-76
2022/03/20 01:20:53;;;;;;;16.77;9.52;;;5.30;17.90;;;;;;5107670;27;34434;-76
2022/03/20 01:23:21;;;;;;;12.50;9.07;;;5.30;17.70;;;;;;5105835;27;34327;-76
2022/03/20 01:25:48;;;;;;;16.58;9.48;;;5.30;17.50;;;;;;5104612;27;35809;-76
2022/03/20 01:28:14;;;;;;;16.15;10.30;;;5.30;17.60;;;;;;5105076;27;34276;-75
2022/03/20 01:30:41;;;;;;;12.40;8.98;;;5.30;17.60;;;;;;5105299;28;34480;-76
2022/03/20 01:33:06;;;;;;;13.95;10.05;;;5.20;17.50;;;;;;5104791;28;34491;-76
2022/03/20 01:35:33;;;;;;;13.35;9.90;;;5.10;17.60;;;;;;5104617;27;35811;-75
2022/03/20 01:37:59;;;;;;;14.48;9.45;;;5.10;17.80;;;;;;5104905;27;34465;-76
2022/03/20 01:40:25;;;;;;;17.58;10.18;;;5.10;17.70;;;;;;5104674;28;34073;-76
2022/03/20 01:42:52;;;;;;;16.65;10.20;;;5.10;17.60;;;;;;5104816;28;34272;-76
2022/03/20 01:45:20;;;;;;;14.32;10.32;;;5.10;17.70;;;;;;5104577;27;35391;-76
2022/03/20 01:47:49;;;;;;;13.90;10.27;;;5.00;18.00;;;;;;5105123;27;34224;-76
2022/03/20 01:50:17;;;;;;;17.13;9.95;;;5.00;17.70;;;;;;5104377;27;34343;-76
2022/03/20 01:52:45;;;;;;;17.17;10.23;;;5.00;17.70;;;;;;5087985;28;34474;-76
2022/03/20 01:55:12;;;;;;;18.50;10.95;;;4.90;18.00;;;;;;5105496;28;35055;-75
2022/03/20 01:57:39;;;;;;;14.80;10.27;;;4.90;17.80;;;;;;5087227;27;34412;-76
2022/03/20 02:00:07;;;;;;;15.02;9.73;;;4.90;18.30;;;;;;5105815;28;34318;-75
2022/03/20 02:02:33;;;;;;;16.27;10.40;;;4.90;18.10;;;;;;5087703;28;34320;-75
2022/03/20 02:04:59;;;;;;;14.63;10.18;;;4.90;18.10;;;;;;5103551;27;35898;-76
2022/03/20 02:07:25;;;;;;;16.42;10.15;;;4.80;18.40;;;;;;5103139;27;34225;-76
2022/03/20 02:09:51;;;;;;;18.52;10.80;;;4.80;18.30;;;;;;5105048;28;34238;-75
2022/03/20 02:12:18;;;;;;;19.35;10.63;;;4.80;18.40;;;;;;5104722;27;34173;-76
2022/03/20 02:14:44;;;;;;;15.20;10.35;;;4.80;18.40;;;;;;5105373;27;34846;-76
2022/03/20 02:17:11;;;;;;;15.38;10.55;;;4.80;18.00;;;;;;5103440;27;34218;-76
2022/03/20 02:19:39;;;;;;;15.07;10.07;;;4.80;18.20;;;;;;5103590;27;34340;-76
2022/03/20 02:22:06;;;;;;;14.90;10.60;;;4.70;18.30;;;;;;5103571;27;34392;-76
2022/03/20 02:24:39;;;;;;;16.60;10.55;;;4.70;18.10;;;;;;5104991;27;34417;-76
2022/03/20 02:27:15;;;;;;;15.63;9.63;;;4.70;18.40;;;;;;5103381;27;34325;-75
2022/03/20 02:29:43;;;;;;;15.60;10.23;;;4.60;18.30;;;;;;5103781;28;34221;-76
2022/03/20 02:32:12;;;;;;;15.50;11.02;;;4.50;18.40;;;;;;5103211;27;34400;-75
2022/03/20 02:34:39;;;;;;;15.40;10.43;;;4.50;18.60;;;;;;5103282;28;35752;-75
2022/03/20 02:37:06;;;;;;;15.50;10.57;;;4.40;18.60;;;;;;5086930;28;34205;-75
2022/03/20 02:39:33;;;;;;;13.77;10.13;;;4.40;18.70;;;;;;5103681;28;34156;-76
2022/03/20 02:42:02;;;;;;;14.68;10.52;;;4.30;18.80;;;;;;5086278;27;34205;-75
2022/03/20 02:44:49;;;;;;;13.20;9.70;;;4.30;19.20;;;;;;5104837;27;34352;-75
2022/03/20 02:47:20;;;;;;;19.48;10.05;;;4.20;21.50;;;;;;5103095;27;34197;-76
2022/03/20 02:49:50;;;;;;;15.63;10.00;;;4.20;18.90;;;;;;5103597;27;34360;-76
2022/03/20 02:52:16;;;;;;;16.20;10.45;;;4.20;19.20;;;;;;5086674;28;34778;-76
2022/03/20 02:54:42;;;;;;;14.88;9.48;;;4.20;18.90;;;;;;5103901;27;35009;-76
2022/03/20 02:57:08;;;;;;;13.82;10.35;;;4.20;18.80;;;;;;5102779;27;34206;-75
2022/03/20 02:59:35;;;;;;;15.80;10.23;;;4.20;18.80;;;;;;5103475;27;34202;-75
2022/03/20 03:02:02;;;;;;;15.52;10.27;;;4.20;18.80;;;;;;5103742;27;34345;-76
2022/03/20 03:04:28;;;;;;;16.15;9.55;;;4.20;18.90;;;;;;5102906;27;35654;-75
2022/03/20 03:06:54;;;;;;;19.88;10.18;;;4.30;18.80;;;;;;5102594;27;34504;-76
2022/03/20 03:12:04;;;;;;;17.75;10.63;;;4.40;18.50;;;;;;5104899;27;34194;-76
2022/03/20 03:17:11;;;;;;;19.25;11.15;;;4.50;18.50;;;;;;5103988;27;34306;-76
2022/03/20 03:19:37;;;;;;;16.38;9.85;;;4.50;18.30;;;;;;5086467;28;34444;-75
2022/03/20 03:22:03;;;;;;;15.82;9.43;;;4.50;18.30;;;;;;5103452;27;34468;-76
2022/03/20 03:24:29;;;;;;;15.50;9.88;;;4.60;18.10;;;;;;5086661;28;35819;-75
2022/03/20 03:26:55;;;;;;;13.45;9.27;;;4.60;17.90;;;;;;5086053;28;34206;-75
2022/03/20 03:29:21;;;;;;;13.68;9.43;;;4.70;18.00;;;;;;5103050;27;34416;-76
2022/03/20 03:31:46;;;;;;;15.35;9.13;;;4.80;18.00;;;;;;5105468;27;34057;-75
2022/03/20 03:36:54;;;;;;;15.05;8.82;;;4.90;17.70;;;;;;5105411;27;34191;-76
2022/03/20 03:39:22;;;;;;;16.83;9.95;;;5.00;17.70;;;;;;5103426;27;34296;-76
2022/03/20 03:41:51;;;;;;;14.50;9.05;;;5.10;17.70;;;;;;5103182;28;34620;-76
2022/03/20 03:44:18;;;;;;;13.88;9.23;;;5.10;17.60;;;;;;5105063;27;34972;-76
2022/03/20 03:46:44;;;;;;;16.15;9.70;;;5.20;17.80;;;;;;5103486;27;34327;-76
2022/03/20 03:49:10;;;;;;;15.55;9.38;;;5.20;17.70;;;;;;5104234;27;34107;-76
2022/03/20 03:51:36;;;;;;;13.23;9.57;;;5.20;17.60;;;;;;5106005;27;34181;-76
2022/03/20 03:54:02;;;;;;;14.88;9.30;;;5.30;17.70;;;;;;5107019;28;35984;-76
2022/03/20 03:56:28;;;;;;;21.70;10.45;;;5.20;17.70;;;;;;5107140;27;34317;-76
2022/03/20 03:58:53;;;;;;;16.17;9.38;;;5.30;17.80;;;;;;5109506;28;34182;-76
2022/03/20 04:01:20;;;;;;;13.85;9.60;;;5.30;17.60;;;;;;5091065;28;34199;-77
2022/03/20 04:03:46;;;;;;;15.48;9.38;;;5.30;17.70;;;;;;5107205;27;36011;-76
2022/03/20 04:06:12;;;;;;;13.40;9.35;;;5.30;17.80;;;;;;5106416;27;34236;-76
2022/03/20 04:08:38;;;;;;;14.63;9.40;;;5.30;17.80;;;;;;5106309;28;34462;-75
2022/03/20 04:11:04;;;;;;;15.70;9.98;;;5.30;17.70;;;;;;5106594;27;34162;-76
2022/03/20 04:13:30;;;;;;;16.50;10.07;;;5.30;17.90;;;;;;5105724;27;36483;-76
2022/03/20 04:15:56;;;;;;;17.08;10.27;;;5.30;17.90;;;;;;5106052;27;34343;-76
2022/03/20 04:18:22;;;;;;;17.75;10.00;;;5.30;18.10;;;;;;5106760;27;34365;-76
2022/03/20 04:20:52;;;;;;;15.60;9.95;;;5.20;18.20;;;;;;5107165;27;34395;-76
2022/03/20 04:25:58;;;;;;;14.82;9.52;;;5.20;18.00;;;;;;5107184;27;34159;-76
2022/03/20 04:28:24;;;;;;;15.30;9.85;;;5.10;18.30;;;;;;5088379;28;34484;-76
2022/03/20 04:30:52;;;;;;;13.32;9.82;;;5.10;18.20;;;;;;5105874;27;34107;-75
2022/03/20 04:33:17;;;;;;;14.60;9.82;;;5.10;18.30;;;;;;5105264;28;35629;-76
2022/03/20 04:35:44;;;;;;;17.42;9.82;;;5.10;18.40;;;;;;5105242;27;34301;-76
2022/03/20 04:38:10;;;;;;;16.15;10.02;;;5.00;18.20;;;;;;5105064;27;34453;-76
2022/03/20 04:40:36;;;;;;;13.85;9.95;;;5.00;18.20;;;;;;5105650;27;34479;-76
2022/03/20 04:43:02;;;;;;;16.33;10.60;;;5.00;18.40;;;;;;5105307;28;36670;-76
2022/03/20 04:45:28;;;;;;;18.27;10.70;;;4.90;18.50;;;;;;5105731;27;34299;-76
2022/03/20 04:58:40;;;;;;;15.32;9.38;;;4.80;18.30;;;;;;5106050;27;34265;-76
2022/03/20 05:01:08;;;;;;;13.63;9.02;;;4.80;18.40;;;;;;5089220;28;35163;-76
2022/03/20 05:03:35;;;;;;;16.63;9.10;;;4.80;18.20;;;;;;5106876;27;34448;-76
2022/03/20 05:06:02;;;;;;;14.52;9.10;;;4.80;18.00;;;;;;5088762;28;34238;-76
2022/03/20 05:08:29;;;;;;;17.35;9.95;;;4.80;17.90;;;;;;5105262;27;34183;-76
2022/03/20 05:13:36;;;;;;;15.68;9.82;;;4.80;18.00;;;;;;5106067;27;34794;-76
2022/03/20 05:16:02;;;;;;;13.75;8.93;;;4.80;17.90;;;;;;5107229;27;34221;-76
2022/03/20 05:18:28;;;;;;;15.15;9.88;;;4.80;18.10;;;;;;5106311;27;34348;-75
2022/03/20 05:20:54;;;;;;;16.48;9.88;;;4.70;18.20;;;;;;5106208;27;34284;-76
2022/03/20 05:23:21;;;;;;;16.52;9.65;;;4.60;18.30;;;;;;5087864;28;36309;-75
2022/03/20 05:25:48;;;;;;;14.50;9.45;;;4.50;18.30;;;;;;5104890;28;34395;-75
2022/03/20 05:28:15;;;;;;;14.38;9.30;;;4.50;18.50;;;;;;5105600;27;34195;-75
2022/03/20 05:30:42;;;;;;;13.98;9.45;;;4.40;18.50;;;;;;5106191;27;34091;-75
2022/03/20 05:33:10;;;;;;;14.27;9.45;;;4.30;18.60;;;;;;5104102;27;35481;-76
2022/03/20 05:35:40;;;;;;;17.00;10.32;;;4.20;18.80;;;;;;5104878;27;34144;-76
2022/03/20 05:38:09;;;;;;;18.90;9.52;;;4.10;19.00;;;;;;5104986;27;34247;-75
2022/03/20 05:40:36;;;;;;;18.75;9.43;;;3.90;19.20;;;;;;5104927;27;34201;-76
2022/03/20 05:43:03;;;;;;;14.55;10.27;;;3.90;19.30;;;;;;5104676;27;35930;-75
2022/03/20 05:45:28;;;;;;;16.05;10.25;;;3.70;19.40;;;;;;5103727;28;34156;-76
2022/03/20 05:47:56;;;;;;;18.00;9.82;;;3.60;19.40;;;;;;5104346;27;33691;-76
2022/03/20 05:50:23;;;;;;;15.90;10.57;;;3.60;19.80;;;;;;5105614;27;34178;-75
2022/03/20 05:52:49;;;;;;;15.13;9.13;;;3.50;19.90;;;;;;5104360;27;35928;-75
2022/03/20 05:55:15;;;;;;;15.70;10.65;;;3.40;19.90;;;;;;5104654;27;34366;-76
2022/03/20 06:00:24;;;;;;;13.60;9.55;;;3.20;20.40;;;;;;5106326;28;34337;-76
2022/03/20 06:02:50;;;;;;;17.42;9.50;;;3.10;20.60;;;;;;5103946;27;36207;-76
2022/03/20 06:05:16;;;;;;;16.70;10.35;;;3.10;20.90;;;;;;5103977;27;34213;-75
2022/03/20 06:07:44;;;;;;;13.40;9.05;;;3.00;21.50;;;;;;5104108;27;34197;-76
2022/03/20 06:10:11;;;;;;;14.07;9.15;;;3.00;21.00;;;;;;5104255;28;34407;-76
2022/03/20 06:12:38;;;;;;;15.73;9.88;;;3.00;21.10;;;;;;5103654;27;34208;-76
2022/03/20 06:15:04;;;;;;;15.63;9.20;;;3.00;21.10;;;;;;5104480;27;34041;-76
2022/03/20 06:17:30;;;;;;;14.98;8.95;;;3.00;21.20;;;;;;5086629;28;34511;-76
2022/03/20 06:19:59;;;;;;;18.02;10.05;;;3.10;21.40;;;;;;5104990;27;34301;-76
2022/03/20 06:22:25;;;;;;;18.60;9.63;;;3.10;21.50;;;;;;5103062;27;35588;-76
2022/03/20 06:24:51;;;;;;;16.00;9.18;;;3.20;21.20;;;;;;5103792;27;34250;-75
2022/03/20 06:27:17;;;;;;;13.85;8.93;;;3.20;21.20;;;;;;5103595;28;34128;-75
2022/03/20 06:29:42;;;;;;;16.90;10.65;;;3.30;21.40;;;;;;5087056;28;34217;-76
2022/03/20 06:32:08;;;;;;;16.23;10.35;;;3.30;21.30;;;;;;5086398;28;36446;-76
2022/03/20 06:34:34;;;;;;;16.52;10.65;;;3.30;21.20;;;;;;5086808;28;34265;-75
2022/03/20 06:37:00;;;;;;;16.60;10.38;;;3.40;21.60;;;;;;5086566;28;34384;-76
2022/03/20 06:39:26;;;;;;;15.93;9.63;;;3.40;21.20;;;;;;5103505;27;34838;-76
2022/03/20 06:41:52;;;;;;;13.93;9.43;;;3.50;21.40;;;;;;5104253;27;35915;-75
2022/03/20 06:44:18;;;;;;;16.35;10.25;;;3.50;21.60;;;;;;5102869;27;34147;-75
2022/03/20 06:46:44;;;;;;;16.42;10.25;;;3.60;21.10;;;;;;5103083;27;34151;-75
2022/03/20 06:49:10;;;;;;;13.60;9.10;;;3.70;20.90;;;;;;5104146;27;34142;-75
2022/03/20 06:51:37;;;;;;;16.10;10.30;;;3.80;20.90;;;;;;5102761;27;36723;-75
2022/03/20 06:54:02;;;;;;;15.05;9.75;;;3.90;21.30;;;;;;5106653;27;34168;-76
2022/03/20 06:56:28;;;;;;;14.75;10.20;;;3.90;21.30;;;;;;5104626;28;34051;-76
2022/03/20 06:58:56;;;;;;;13.38;10.02;;;4.00;20.90;;;;;;5104597;27;34458;-76
2022/03/20 07:01:22;;;;;;;18.60;9.57;;;4.00;21.10;;;;;;5102680;28;35837;-75
2022/03/20 07:03:48;;;;;;;14.68;9.65;;;4.10;21.30;;;;;;5103194;28;34373;-76
2022/03/20 07:06:13;;;;;;;17.65;10.27;;;4.10;21.10;;;;;;5085877;28;34222;-75
2022/03/20 07:08:39;;;;;;;14.90;9.75;;;4.20;21.10;;;;;;5104094;27;34159;-76
2022/03/20 07:11:05;;;;;;;16.02;9.60;;;4.20;20.90;;;;;;5102790;28;35637;-75
2022/03/20 07:16:14;;;;;;;17.23;9.65;;;4.30;21.20;;;;;;5104663;28;34087;-75
2022/03/20 07:18:41;;;;;;;15.98;10.43;;;4.40;20.90;;;;;;5087348;28;34353;-75
2022/03/20 07:21:09;;;;;;;16.05;10.65;;;4.50;21.00;;;;;;5104060;27;35726;-75
2022/03/20 07:23:37;;;;;;;14.07;9.45;;;4.50;20.90;;;;;;5102930;27;34264;-75
2022/03/20 07:31:25;;;;;;;16.40;10.25;;;4.70;20.70;;;;;;5103129;28;34775;-75
2022/03/20 07:33:51;;;;;;;18.45;10.50;;;4.80;20.40;;;;;;5102760;28;34418;-76
2022/03/20 07:36:19;;;;;;;17.27;10.35;;;4.80;20.00;;;;;;5102820;27;34403;-75
2022/03/20 07:38:45;;;;;;;16.15;9.00;;;4.90;20.10;;;;;;5102954;27;34162;-76
2022/03/20 07:41:11;;;;;;;13.68;9.88;;;4.90;19.90;;;;;;5102140;28;35146;-75
2022/03/20 07:43:37;;;;;;;18.33;10.68;;;5.00;20.10;;;;;;5103158;27;34226;-75
2022/03/20 07:46:04;;;;;;;14.32;9.23;;;5.00;19.80;;;;;;5102972;27;34431;-75
2022/03/20 07:48:29;;;;;;;13.80;9.15;;;5.10;19.60;;;;;;5085558;28;34531;-76
2022/03/20 07:50:55;;;;;;;15.30;9.35;;;5.20;19.00;;;;;;5085349;28;36458;-76
2022/03/20 07:53:23;;;;;;;16.08;10.13;;;5.30;18.90;;;;;;5103237;28;34094;-76
2022/03/20 07:55:48;;;;;;;16.45;10.40;;;5.40;18.90;;;;;;5102400;27;34336;-75
2022/03/20 07:58:19;;;;;;;15.10;9.32;;;5.60;18.90;;;;;;5102265;28;34370;-76
2022/03/20 08:00:46;;;;;;;17.52;9.70;;;5.70;18.80;;;;;;5084624;28;35618;-76
2022/03/20 08:03:12;;;;;;;15.88;9.35;;;5.70;18.40;;;;;;5103382;27;34260;-76
2022/03/20 08:05:38;;;;;;;17.50;9.23;;;5.80;18.40;;;;;;5105477;27;34327;-76
2022/03/20 08:08:05;;;;;;;14.25;9.25;;;5.90;18.20;;;;;;5125367;27;34046;-76
2022/03/20 08:10:31;;;;;;;20.77;10.50;;;6.00;18.10;;;;;;5123643;27;35950;-76
2022/03/20 08:12:58;;;;;;;16.17;9.38;;;6.10;18.30;;;;;;5124900;27;34536;-76
2022/03/20 08:15:24;;;;;;;15.20;9.00;;;6.10;18.00;;;;;;5122101;27;34503;-76
2022/03/20 08:17:51;;;;;;;17.60;10.02;;;6.10;17.90;;;;;;5123686;27;34129;-76
2022/03/20 08:20:18;;;;;;;15.98;9.80;;;6.20;17.80;;;;;;5122233;27;35609;-75
2022/03/20 08:22:44;;;;;;;16.92;9.25;;;6.30;17.90;;;;;;5123387;27;34217;-75
2022/03/20 08:25:11;;;;;;;15.85;9.77;;;6.30;17.80;;;;;;5121663;27;34296;-75
2022/03/20 08:27:46;;;;;;;15.15;10.30;;;6.40;17.40;;;;;;5122885;27;34289;-76
2022/03/20 08:30:15;;;;;;;16.45;9.55;;;6.50;17.40;;;;;;5105642;27;36756;-76
2022/03/20 08:32:42;;;;;;;14.52;9.15;;;6.50;17.60;;;;;;5123087;27;34287;-75
2022/03/20 08:35:13;;;;;;;17.00;10.10;;;6.70;17.30;;;;;;5124281;27;34148;-75
2022/03/20 08:37:43;;;;;;;16.65;9.52;;;6.80;17.10;;;;;;5126862;27;34170;-75
2022/03/20 08:40:15;;;;;;;13.65;9.45;;;7.00;16.90;;;;;;5125810;27;35511;-76
2022/03/20 08:42:44;;;;;;;15.80;10.25;;;7.30;16.90;;;;;;5126034;27;34483;-76
2022/03/20 08:45:11;;;;;;;15.50;9.27;;;7.50;16.80;;;;;;5125429;27;34164;-76
2022/03/20 08:47:38;;;;;;;16.15;9.80;;;7.70;16.30;;;;;;5125916;27;34183;-75
2022/03/20 08:50:05;;;;;;;15.48;9.98;;;7.80;16.10;;;;;;5126382;27;35693;-76
2022/03/20 08:52:31;;;;;;;15.38;9.57;;;7.90;16.00;;;;;;5127161;27;34155;-76
2022/03/20 08:54:57;;;;;;;15.63;9.90;;;8.00;15.90;;;;;;5126744;27;34090;-76
2022/03/20 08:57:27;;;;;;;15.25;9.98;;;8.10;15.80;;;;;;5127338;27;34130;-75
2022/03/20 08:59:54;;;;;;;18.00;11.00;;;8.30;15.40;;;;;;5126397;27;35798;-76
2022/03/20 09:02:21;;;;;;;15.60;9.48;;;8.40;15.50;;;;;;5108202;27;34489;-75
2022/03/20 09:04:46;;;;;;;16.52;10.43;;;8.60;15.40;;;;;;5125089;27;34535;-76
2022/03/20 09:07:12;;;;;;;16.92;10.73;;;8.70;15.40;;;;;;5105768;28;34354;-76
2022/03/20 09:09:38;;;;;;;17.33;9.68;;;8.90;15.50;;;;;;5105807;28;35910;-76
2022/03/20 09:12:05;;;;;;;17.92;10.30;;;9.10;15.30;;;;;;5106653;28;34049;-76
2022/03/20 09:14:31;;;;;;;17.55;10.10;;;9.30;15.10;;;;;;5089119;28;34147;-76
2022/03/20 09:19:38;;;;;;;19.20;10.75;;;9.50;15.00;;;;;;5106447;28;34257;-76
2022/03/20 09:22:06;;;;;;;14.82;9.90;;;9.60;14.90;;;;;;5106384;27;34269;-76
2022/03/20 09:24:33;;;;;;;19.55;10.65;;;9.60;14.80;;;;;;5104798;27;34309;-76
2022/03/20 09:27:00;;;;;;;14.57;10.35;;;9.70;14.90;;;;;;5105709;27;34391;-76
2022/03/20 09:29:26;;;;;;;15.32;10.05;;;9.70;14.90;;;;;;5104561;27;34189;-76
2022/03/20 09:31:53;;;;;;;17.60;11.02;;;9.80;14.70;;;;;;5106191;28;34225;-76
2022/03/20 09:34:19;;;;;;;15.15;10.27;;;9.80;14.80;;;;;;5104336;27;34150;-76
2022/03/20 09:36:45;;;;;;;16.75;9.98;;;9.90;14.90;;;;;;5104854;27;34412;-76
2022/03/20 09:39:11;;;;;;;17.10;9.95;;;9.90;14.90;;;;;;5106416;27;34241;-76
2022/03/20 09:41:41;;;;;;;19.63;11.55;;;9.90;14.80;;;;;;5106130;27;34671;-77
2022/03/20 09:44:08;;;;;;;18.85;11.52;;;9.90;14.70;;;;;;5087377;28;34279;-76
2022/03/20 09:46:35;;;;;;;18.75;11.02;;;10.00;14.90;;;;;;5104064;27;34228;-75
2022/03/20 09:49:03;;;;;;;17.13;11.32;;;10.00;15.00;;;;;;5103738;27;34258;-76
2022/03/20 09:51:29;;;;;;;16.45;11.48;;;10.00;15.20;;;;;;5103627;27;34417;-76
2022/03/20 09:53:55;;;;;;;17.88;11.95;;;9.90;15.30;;;;;;5103992;27;34360;-76
2022/03/20 09:56:21;;;;;;;17.23;10.48;;;10.00;15.30;;;;;;5087321;28;34495;-76
2022/03/20 09:58:47;;;;;;;18.23;10.85;;;10.00;15.40;;;;;;5087775;28;35742;-77
2022/03/20 10:01:14;;;;;;;18.52;11.88;;;9.70;15.60;;;;;;5105541;27;34115;-76
2022/03/20 10:03:39;;;;;;;21.63;12.35;;;9.80;15.80;;;;;;5105162;27;34231;-76
2022/03/20 10:06:19;;;;;;;16.23;10.75;;;9.70;15.90;;;;;;5103710;27;34466;-76
2022/03/20 10:09:02;;;;;;;24.05;12.70;;;9.70;16.00;;;;;;5102902;27;36019;-76
2022/03/20 10:11:28;;;;;;;20.02;12.18;;;9.70;16.40;;;;;;5105146;27;34196;-76
2022/03/20 10:14:18;;;;;;;18.23;11.75;;;9.70;16.50;;;;;;5103814;27;34274;-76
2022/03/20 10:16:53;;;;;;;17.50;11.32;;;9.70;16.70;;;;;;5104803;27;34221;-76
2022/03/20 10:19:30;;;;;;;19.80;12.18;;;9.60;17.00;;;;;;5104007;28;34227;-76
2022/03/20 10:21:59;;;;;;;18.65;12.18;;;9.50;17.20;;;;;;5104524;27;34242;-76
2022/03/20 10:24:27;;;;;;;18.20;12.15;;;9.50;17.20;;;;;;5104841;28;34138;-77
2022/03/20 10:27:13;;;;;;;26.50;12.90;;;9.40;17.60;;;;;;5105534;28;34377;-76
2022/03/20 10:29:49;;;;;;;22.52;12.95;;;9.40;20.00;;;;;;5087019;28;36488;-75
2022/03/20 10:32:15;;;;;;;20.02;12.10;;;9.40;19.00;;;;;;5104197;28;34301;-75
2022/03/20 10:34:52;;;;;;;20.00;12.65;;;9.30;18.50;;;;;;5086772;28;34290;-77
2022/03/20 10:37:20;;;;;;;20.50;12.77;;;9.30;21.60;;;;;;5103781;28;34235;-75
2022/03/20 10:39:46;;;;;;;26.17;13.65;;;9.20;19.20;;;;;;5093672;28;34211;-76
2022/03/20 10:42:14;;;;;;;21.02;13.40;;;9.20;19.60;;;;;;5062687;28;34128;-75
2022/03/20 10:44:40;;;;;;;16.77;11.00;;;9.20;19.70;;;;;;5046347;28;34143;-75
2022/03/20 10:47:12;;;;;;;21.75;12.10;;;9.00;20.20;;;;;;5062768;28;34350;-76
2022/03/20 10:49:41;;;;;;;22.88;13.27;;;9.20;20.50;;;;;;5063138;28;35894;-76
2022/03/20 10:52:12;;;;;;;20.08;12.65;;;9.20;20.80;;;;;;5063352;28;34221;-76
2022/03/20 10:54:44;;;;;;;21.70;13.02;;;9.20;21.60;;;;;;5063000;28;34212;-77
2022/03/20 10:57:12;;;;;;;22.05;12.65;;;9.20;22.80;;;;;;5062746;28;34321;-76
2022/03/20 10:59:39;;;;;;;22.20;13.20;;;9.20;22.50;;;;;;5046365;28;35847;-76
2022/03/20 11:02:18;;;;;;;25.52;13.20;;;9.20;21.60;;;;;;5061737;28;34434;-75
2022/03/20 11:04:44;;;;;;;20.60;12.98;;;9.20;20.70;;;;;;5047044;28;34383;-75
2022/03/20 11:07:16;;;;;;;21.48;13.70;;;9.30;21.20;;;;;;5093274;28;34314;-76
2022/03/20 11:09:45;;;;;;;21.10;13.23;;;9.30;21.50;;;;;;5085284;27;36461;-75
2022/03/20 11:12:18;;;;;;;22.35;13.50;;;9.50;22.80;;;;;;5085461;28;34221;-76
2022/03/20 11:14:46;;;;;;;27.45;13.20;;;9.60;22.30;;;;;;5086074;28;34421;-76
2022/03/20 11:17:17;;;;;;;21.50;12.80;;;9.70;21.50;;;;;;5085895;28;34473;-76
2022/03/20 11:19:50;;;;;;;22.98;13.50;;;9.80;22.00;;;;;;5086365;28;35888;-76
2022/03/20 11:22:20;;;;;;;20.33;12.80;;;9.90;23.20;;;;;;5104542;27;34282;-76
2022/03/20 11:24:47;;;;;;;21.58;12.50;;;9.90;22.30;;;;;;5085945;28;34172;-75
2022/03/20 11:27:20;;;;;;;22.38;13.02;;;9.80;22.10;;;;;;5086544;28;34385;-75
2022/03/20 11:29:50;;;;;;;23.90;12.90;;;9.80;22.60;;;;;;5069586;28;35635;-75
2022/03/20 11:32:18;;;;;;;20.20;13.20;;;9.70;22.80;;;;;;5068947;28;34161;-75
2022/03/20 11:34:46;;;;;;;22.65;13.05;;;9.70;22.40;;;;;;5069136;28;34184;-76
2022/03/20 11:37:15;;;;;;;20.15;13.38;;;9.70;22.50;;;;;;5086023;28;34517;-75
2022/03/20 11:40:22;;;;;;;19.83;12.93;;;9.70;22.60;;;;;;5104207;27;34223;-76
2022/03/20 11:42:49;;;;;;;19.33;12.23;;;9.60;26.10;;;;;;5071728;28;34106;-76
2022/03/20 11:45:20;;;;;;;19.63;12.38;;;9.70;23.20;;;;;;5085163;28;34112;-76
2022/03/20 11:47:49;;;;;;;22.05;13.32;;;9.70;23.00;;;;;;5069914;28;34209;-76
2022/03/20 11:50:39;;;;;;;19.38;12.25;;;9.80;23.00;;;;;;5085591;28;35206;-75
2022/03/20 11:53:06;;;;;;;21.10;12.95;;;9.70;25.70;;;;;;5085936;28;34576;-75
2022/03/20 11:55:48;;;;;;;20.95;13.95;;;9.80;22.80;;;;;;5104347;28;34106;-76
2022/03/20 11:58:35;;;;;;;23.73;13.52;;;9.80;24.80;;;;;;5119225;27;34326;-76
2022/03/20 12:01:04;;;;;;;22.17;13.32;;;9.80;28.80;;;;;;5071585;28;35612;-76
2022/03/20 12:03:51;;;;;;;24.05;12.02;;;9.80;22.90;;;;;;5085395;28;34207;-76
2022/03/20 12:06:48;;;;;;;20.08;12.07;;;9.70;26.40;;;;;;5069539;28;34310;-76
2022/03/20 12:09:42;;;;;;;19.75;11.75;;;9.60;27.60;;;;;;5120513;27;34107;-77
2022/03/20 12:12:32;;;;;;;19.83;12.07;;;9.70;26.50;;;;;;5089607;28;35622;-77
2022/03/20 12:15:06;;;;;;;20.67;12.65;;;9.60;26.40;;;;;;5124281;27;34241;-76
2022/03/20 12:18:02;;;;;;;20.17;12.00;;;9.60;23.00;;;;;;5088554;28;34199;-76
2022/03/20 12:21:00;;;;;;;22.95;12.15;;;9.70;25.30;;;;;;5107842;27;34443;-76
2022/03/20 12:23:36;;;;;;;19.85;12.25;;;9.70;25.80;;;;;;5122900;27;35802;-76
2022/03/20 12:26:37;;;;;;;22.90;12.15;;;9.60;24.40;;;;;;5072882;28;34315;-77
2022/03/20 12:29:27;;;;;;;16.75;11.32;;;9.60;25.70;;;;;;5123341;27;34498;-76
2022/03/20 12:31:59;;;;;;;18.77;11.52;;;9.60;26.20;;;;;;5107547;27;34095;-76
2022/03/20 12:34:25;;;;;;;18.75;13.10;;;9.60;23.20;;;;;;5088620;28;35982;-76
2022/03/20 12:36:52;;;;;;;22.02;12.15;;;9.60;23.40;;;;;;5089815;28;34304;-76
2022/03/20 12:39:48;;;;;;;19.70;12.07;;;9.60;23.20;;;;;;5089085;28;34131;-76
2022/03/20 12:42:17;;;;;;;20.80;12.20;;;9.60;27.50;;;;;;5123440;27;34282;-76
2022/03/20 12:44:45;;;;;;;21.70;12.60;;;9.70;23.30;;;;;;5106632;27;34303;-76
2022/03/20 12:47:11;;;;;;;21.02;11.82;;;9.80;23.50;;;;;;5106809;27;34356;-76
2022/03/20 12:49:42;;;;;;;16.98;11.27;;;9.90;23.10;;;;;;5088662;28;34109;-76
2022/03/20 12:52:09;;;;;;;20.10;12.77;;;9.90;23.50;;;;;;5072894;27;34452;-76
2022/03/20 12:54:35;;;;;;;21.00;12.68;;;9.90;23.30;;;;;;5106528;28;34593;-76
2022/03/20 12:57:04;;;;;;;20.60;12.73;;;10.00;23.10;;;;;;5088307;28;34216;-76
2022/03/20 12:59:30;;;;;;;24.00;12.85;;;10.20;22.80;;;;;;5072148;28;34326;-76
2022/03/20 13:02:03;;;;;;;20.88;12.68;;;10.50;22.50;;;;;;5088265;28;34463;-76
2022/03/20 13:04:29;;;;;;;18.77;12.15;;;10.80;22.30;;;;;;5089776;28;35773;-76
2022/03/20 13:06:55;;;;;;;17.52;11.60;;;11.00;21.70;;;;;;5072752;28;34769;-76
2022/03/20 13:09:21;;;;;;;22.83;12.70;;;11.30;21.20;;;;;;5089513;28;34221;-76
2022/03/20 13:11:56;;;;;;;19.27;12.50;;;11.50;21.10;;;;;;5088219;27;34186;-76
2022/03/20 13:14:23;;;;;;;19.20;10.63;;;11.70;20.70;;;;;;5087949;27;35885;-77
2022/03/20 13:16:55;;;;;;;15.50;10.93;;;11.80;20.00;;;;;;5088738;28;34427;-77
2022/03/20 13:19:31;;;;;;;17.02;10.50;;;11.90;21.20;;;;;;5088538;28;34410;-76
2022/03/20 13:22:00;;;;;;;16.98;10.60;;;11.90;20.70;;;;;;5070825;28;34118;-76
2022/03/20 13:24:33;;;;;;;17.20;10.73;;;11.90;19.80;;;;;;5087862;28;35511;-76